createdAt,value
2023-02-09T00:00:16.818Z,103070.75
2023-02-09T00:02:44.769Z,103064.19
2023-02-09T00:05:13.149Z,103059.94
2023-02-09T00:07:40.799Z,103051.75
2023-02-09T00:10:09.072Z,103058.88
2023-02-09T00:12:56.575Z,103051.25
2023-02-09T00:15:24.230Z,103052.53
2023-02-09T00:17:51.842Z,103050.66
2023-02-09T00:20:19.900Z,103056.69
2023-02-09T00:22:47.595Z,103059.31
2023-02-09T00:25:15.246Z,103053.78
2023-02-09T00:27:44.314Z,103047.69
2023-02-09T00:30:13.392Z,103045.16
2023-02-09T00:32:41.064Z,103034.91
2023-02-09T00:35:09.200Z,103035.84
2023-02-09T00:37:37.554Z,103028.41
2023-02-09T00:40:06.573Z,103023.19
2023-02-09T00:42:34.236Z,103025.03
2023-02-09T00:45:03.289Z,103017.16
2023-02-09T00:47:30.955Z,103015.00
2023-02-09T00:49:58.645Z,103014.28
2023-02-09T00:52:26.326Z,103017.94
2023-02-09T00:54:54.005Z,103020.13
2023-02-09T00:57:21.628Z,103029.94
2023-02-09T00:59:49.318Z,103015.41
2023-02-09T01:02:18.477Z,103016.06
2023-02-09T01:04:46.242Z,103009.72
2023-02-09T01:07:13.904Z,103009.53
2023-02-09T01:09:41.609Z,103001.56
2023-02-09T01:12:09.400Z,102996.84
2023-02-09T01:14:39.004Z,103002.28
2023-02-09T01:17:06.956Z,102995.03
2023-02-09T01:19:36.190Z,102999.09
2023-02-09T01:22:04.247Z,102993.38
2023-02-09T01:24:32.052Z,102995.22
2023-02-09T01:26:59.978Z,102993.38
2023-02-09T01:29:27.690Z,102995.94
2023-02-09T01:31:55.533Z,102986.38
2023-02-09T01:34:26.153Z,102975.19
2023-02-09T01:36:55.159Z,102985.06
2023-02-09T01:39:22.814Z,102976.44
2023-02-09T01:41:50.549Z,102969.22
2023-02-09T01:44:55.698Z,102969.31
2023-02-09T01:47:23.356Z,102966.53
2023-02-09T01:49:52.087Z,102956.34
2023-02-09T01:52:27.658Z,102955.63
2023-02-09T01:55:00.630Z,102943.47
2023-02-09T01:57:32.197Z,102944.34
2023-02-09T02:00:03.661Z,102948.28
2023-02-09T02:02:31.617Z,102937.91
2023-02-09T02:04:59.753Z,102927.56
2023-02-09T02:07:34.266Z,102928.91
2023-02-09T02:10:03.291Z,102922.00
2023-02-09T02:12:31.781Z,102918.59
2023-02-09T02:14:59.441Z,102913.09
2023-02-09T02:17:38.435Z,102919.25
2023-02-09T02:20:33.949Z,102918.69
2023-02-09T02:23:10.436Z,102917.34
2023-02-09T02:26:08.144Z,102907.97
2023-02-09T02:28:53.300Z,102913.97
2023-02-09T02:31:51.432Z,102902.38
2023-02-09T02:34:24.924Z,102902.72
2023-02-09T02:37:02.511Z,102901.53
2023-02-09T02:39:38.612Z,102898.63
2023-02-09T02:42:31.330Z,102901.44
2023-02-09T02:45:07.475Z,102888.63
2023-02-09T02:47:41.784Z,102893.75
2023-02-09T02:50:14.514Z,102894.47
2023-02-09T02:52:47.397Z,102883.41
2023-02-09T02:55:18.082Z,102882.41
2023-02-09T02:57:51.765Z,102880.00
2023-02-09T03:00:22.972Z,102878.59
2023-02-09T03:02:56.132Z,102875.78
2023-02-09T03:05:25.768Z,102875.19
2023-02-09T03:07:53.454Z,102881.06
2023-02-09T03:10:32.485Z,102877.66
2023-02-09T03:13:09.327Z,102877.66
2023-02-09T03:15:51.110Z,102859.66
2023-02-09T03:18:27.291Z,102865.25
2023-02-09T03:21:00.188Z,102871.09
2023-02-09T03:23:43.029Z,102864.75
2023-02-09T03:26:16.948Z,102865.97
2023-02-09T03:28:47.700Z,102866.53
2023-02-09T03:31:16.371Z,102862.16
2023-02-09T03:33:45.691Z,102867.16
2023-02-09T03:36:16.146Z,102856.13
2023-02-09T03:38:43.926Z,102848.94
2023-02-09T03:41:11.559Z,102843.31
2023-02-09T03:43:56.568Z,102841.59
2023-02-09T03:46:24.393Z,102838.53
2023-02-09T03:48:53.614Z,102835.16
2023-02-09T03:51:21.255Z,102838.22
2023-02-09T03:53:48.846Z,102848.47
2023-02-09T03:56:16.545Z,102846.88
2023-02-09T03:58:44.237Z,102833.22
2023-02-09T04:01:12.654Z,102831.94
2023-02-09T04:03:40.805Z,102836.16
2023-02-09T04:06:10.953Z,102838.53
2023-02-09T04:08:38.810Z,102837.91
2023-02-09T04:11:06.571Z,102830.50
2023-02-09T04:13:34.234Z,102827.88
2023-02-09T04:16:01.989Z,102826.66
2023-02-09T04:18:29.666Z,102824.22
2023-02-09T04:20:57.254Z,102822.84
2023-02-09T04:23:26.266Z,102819.78
2023-02-09T04:25:53.897Z,102817.41
2023-02-09T04:28:21.636Z,102807.91
2023-02-09T04:30:53.084Z,102805.69
2023-02-09T04:33:21.129Z,102809.38
2023-02-09T04:35:48.860Z,102820.69
2023-02-09T04:38:16.650Z,102816.03
2023-02-09T04:40:46.000Z,102810.34
2023-02-09T04:43:13.894Z,102812.69
2023-02-09T04:45:43.137Z,102813.91
2023-02-09T04:48:14.055Z,102808.31
2023-02-09T04:50:42.022Z,102807.47
2023-02-09T04:53:10.156Z,102813.28
2023-02-09T04:55:38.980Z,102811.84
2023-02-09T04:58:25.781Z,102810.03
2023-02-09T05:00:55.898Z,102803.19
2023-02-09T05:03:24.798Z,102802.72
2023-02-09T05:05:55.735Z,102797.38
2023-02-09T05:08:23.907Z,102797.97
2023-02-09T05:10:52.146Z,102793.97
2023-02-09T05:13:21.675Z,102791.53
2023-02-09T05:15:49.924Z,102799.84
2023-02-09T05:18:18.045Z,102797.28
2023-02-09T05:20:46.705Z,102798.88
2023-02-09T05:23:14.862Z,102787.81
2023-02-09T05:25:42.547Z,102797.16
2023-02-09T05:28:10.215Z,102790.00
2023-02-09T05:30:39.375Z,102790.97
2023-02-09T05:33:07.191Z,102788.25
2023-02-09T05:35:34.961Z,102781.66
2023-02-09T05:38:02.616Z,102781.31
2023-02-09T05:40:30.279Z,102785.31
2023-02-09T05:42:59.680Z,102790.34
2023-02-09T05:45:27.436Z,102789.22
2023-02-09T05:47:56.471Z,102797.94
2023-02-09T05:50:24.210Z,102793.88
2023-02-09T05:52:51.841Z,102794.22
2023-02-09T05:55:19.656Z,102797.00
2023-02-09T05:57:47.305Z,102792.78
2023-02-09T06:00:16.441Z,102794.13
2023-02-09T06:02:44.148Z,102795.47
2023-02-09T06:05:13.145Z,102800.19
2023-02-09T06:07:40.780Z,102800.81
2023-02-09T06:10:09.096Z,102806.53
2023-02-09T06:12:36.704Z,102809.19
2023-02-09T06:15:04.784Z,102805.66
2023-02-09T06:17:32.433Z,102799.84
2023-02-09T06:20:00.138Z,102799.94
2023-02-09T06:22:31.716Z,102799.31
2023-02-09T06:24:59.496Z,102798.22
2023-02-09T06:27:27.149Z,102799.78
2023-02-09T06:29:54.781Z,102801.53
2023-02-09T06:32:22.427Z,102801.53
2023-02-09T06:34:50.088Z,102798.84
2023-02-09T06:37:17.779Z,102790.84
2023-02-09T06:39:46.816Z,102794.38
2023-02-09T06:42:14.461Z,102791.94
2023-02-09T06:44:42.368Z,102792.69
2023-02-09T06:47:10.063Z,102799.72
2023-02-09T06:49:37.705Z,102796.44
2023-02-09T06:52:06.220Z,102796.44
2023-02-09T06:54:33.909Z,102798.53
2023-02-09T06:57:02.990Z,102800.34
2023-02-09T06:59:30.618Z,102795.84
2023-02-09T07:01:58.386Z,102796.34
2023-02-09T07:04:26.154Z,102801.44
2023-02-09T07:06:53.917Z,102800.56
2023-02-09T07:09:21.541Z,102792.69
2023-02-09T07:11:49.270Z,102800.56
2023-02-09T07:14:18.290Z,102801.78
2023-02-09T07:16:46.016Z,102806.16
2023-02-09T07:19:13.921Z,102804.47
2023-02-09T07:21:41.595Z,102802.88
2023-02-09T07:24:09.259Z,102805.97
2023-02-09T07:26:36.956Z,102805.69
2023-02-09T07:29:04.684Z,102800.53
2023-02-09T07:31:34.133Z,102804.53
2023-02-09T07:34:01.948Z,102816.66
2023-02-09T07:36:29.709Z,102814.16
2023-02-09T07:38:57.856Z,102810.03
2023-02-09T07:41:26.079Z,102814.75
2023-02-09T07:43:54.472Z,102819.84
2023-02-09T07:46:23.687Z,102809.97
2023-02-09T07:48:52.954Z,102811.44
2023-02-09T07:51:25.177Z,102797.94
2023-02-09T07:53:52.899Z,102812.34
2023-02-09T07:56:20.842Z,102809.59
2023-02-09T07:58:48.689Z,102806.16
2023-02-09T08:01:19.698Z,102813.00
2023-02-09T08:03:50.369Z,102813.16
2023-02-09T08:06:30.386Z,102810.03
2023-02-09T08:09:05.474Z,102803.03
2023-02-09T08:11:36.671Z,102803.66
2023-02-09T08:14:07.952Z,102795.59
2023-02-09T08:16:36.171Z,102796.50
2023-02-09T08:19:07.553Z,102802.19
2023-02-09T08:21:38.371Z,102806.19
2023-02-09T08:24:07.548Z,102802.56
2023-02-09T08:26:36.232Z,102806.44
2023-02-09T08:29:04.437Z,102804.50
2023-02-09T08:31:32.202Z,102791.84
2023-02-09T08:34:00.009Z,102801.31
2023-02-09T08:36:27.779Z,102790.31
2023-02-09T08:38:56.783Z,102798.78
2023-02-09T08:41:24.422Z,102788.75
2023-02-09T08:43:52.517Z,102791.44
2023-02-09T08:46:20.519Z,102796.97
2023-02-09T08:48:48.596Z,102781.84
2023-02-09T08:51:17.593Z,102795.69
2023-02-09T08:53:52.253Z,102798.91
2023-02-09T08:56:22.565Z,102799.75
2023-02-09T08:58:50.877Z,102800.75
2023-02-09T09:01:18.662Z,102798.41
2023-02-09T09:03:46.463Z,102790.50
2023-02-09T09:06:14.327Z,102790.97
2023-02-09T09:08:42.257Z,102797.03
2023-02-09T09:11:13.001Z,102795.22
2023-02-09T09:13:42.705Z,102799.00
2023-02-09T09:16:15.876Z,102809.06
2023-02-09T09:18:44.407Z,102804.16
2023-02-09T09:21:12.458Z,102804.00
2023-02-09T09:23:40.195Z,102803.84
2023-02-09T09:26:08.003Z,102796.66
2023-02-09T09:28:35.708Z,102801.72
2023-02-09T09:31:09.902Z,102794.28
2023-02-09T09:33:37.932Z,102793.97
2023-02-09T09:36:07.743Z,102795.38
2023-02-09T09:38:35.921Z,102799.31
2023-02-09T09:41:05.317Z,102803.69
2023-02-09T09:43:35.875Z,102796.66
2023-02-09T09:46:05.009Z,102808.53
2023-02-09T09:48:45.355Z,102801.50
2023-02-09T09:51:17.425Z,102799.53
2023-02-09T09:53:48.571Z,102792.44
2023-02-09T09:56:16.905Z,102797.28
2023-02-09T09:58:45.556Z,102795.91
2023-02-09T10:01:15.085Z,102793.28
2023-02-09T10:03:44.959Z,102781.13
2023-02-09T10:06:17.510Z,102774.53
2023-02-09T10:08:50.762Z,102766.59
2023-02-09T10:11:21.790Z,102768.97
2023-02-09T10:13:51.633Z,102778.31
2023-02-09T10:16:24.722Z,102761.75
2023-02-09T10:18:56.426Z,102756.34
2023-02-09T10:21:25.694Z,102762.09
2023-02-09T10:24:11.322Z,102767.03
2023-02-09T10:26:40.607Z,102765.69
2023-02-09T10:29:26.099Z,102754.53
2023-02-09T10:31:58.167Z,102746.47
2023-02-09T10:34:33.274Z,102743.09
2023-02-09T10:37:17.334Z,102751.22
2023-02-09T10:39:46.249Z,102747.69
2023-02-09T10:42:20.677Z,102754.94
2023-02-09T10:44:51.482Z,102740.75
2023-02-09T10:47:29.600Z,102749.38
2023-02-09T10:50:06.662Z,102748.88
2023-02-09T10:52:36.025Z,102734.88
2023-02-09T10:55:08.280Z,102732.69
2023-02-09T10:57:38.221Z,102722.53
2023-02-09T11:00:29.765Z,102720.34
2023-02-09T11:03:01.633Z,102721.88
2023-02-09T11:05:34.184Z,102708.50
2023-02-09T11:08:13.609Z,102704.09
2023-02-09T11:10:45.328Z,102700.91
2023-02-09T11:13:20.081Z,102704.94
2023-02-09T11:16:15.253Z,102688.34
2023-02-09T11:18:47.110Z,102673.16
2023-02-09T11:21:22.826Z,102675.66
2023-02-09T11:24:01.922Z,102665.50
2023-02-09T11:26:39.275Z,102660.41
2023-02-09T11:29:13.583Z,102651.69
2023-02-09T11:31:49.468Z,102646.94
2023-02-09T11:34:38.306Z,102648.69
2023-02-09T11:37:28.478Z,102638.34
2023-02-09T11:40:02.793Z,102645.09
2023-02-09T11:42:45.081Z,102644.19
2023-02-09T11:45:18.685Z,102655.69
2023-02-09T11:47:54.614Z,102658.59
2023-02-09T11:50:28.409Z,102652.19
2023-02-09T11:53:01.562Z,102654.06
2023-02-09T11:55:34.777Z,102654.50
2023-02-09T11:58:12.936Z,102653.31
2023-02-09T12:00:57.736Z,102649.06
2023-02-09T12:03:29.583Z,102669.47
2023-02-09T12:05:57.790Z,102659.69
2023-02-09T12:08:53.989Z,102660.94
2023-02-09T12:11:31.982Z,102661.16
2023-02-09T12:14:09.789Z,102653.75
2023-02-09T12:16:41.844Z,102651.75
2023-02-09T12:19:25.657Z,102644.03
2023-02-09T12:21:53.390Z,102648.75
2023-02-09T12:24:40.312Z,102648.94
2023-02-09T12:27:25.910Z,102647.72
2023-02-09T12:29:53.691Z,102645.81
2023-02-09T12:32:44.144Z,102638.44
2023-02-09T12:35:27.251Z,102646.31
2023-02-09T12:38:17.899Z,102651.03
2023-02-09T12:41:03.254Z,102631.69
2023-02-09T12:43:33.239Z,102626.06
2023-02-09T12:46:48.280Z,102626.13
2023-02-09T12:49:32.033Z,102615.38
2023-02-09T12:52:15.801Z,102627.78
2023-02-09T12:54:47.306Z,102620.28
2023-02-09T12:57:54.563Z,102610.59
2023-02-09T13:00:57.331Z,102621.16
2023-02-09T13:03:26.545Z,102611.88
2023-02-09T13:05:59.664Z,102615.38
2023-02-09T13:08:33.141Z,102610.97
2023-02-09T13:11:05.975Z,102610.34
2023-02-09T13:13:47.244Z,102619.44
2023-02-09T13:17:02.609Z,102633.41
2023-02-09T13:19:51.802Z,102642.97
2023-02-09T13:22:47.726Z,102635.78
2023-02-09T13:25:23.602Z,102636.25
2023-02-09T13:27:51.338Z,102647.72
2023-02-09T13:30:27.450Z,102637.31
2023-02-09T13:33:04.340Z,102647.56
2023-02-09T13:35:37.367Z,102666.47
2023-02-09T13:38:16.546Z,102664.63
2023-02-09T13:40:47.482Z,102672.28
2023-02-09T13:43:19.297Z,102665.63
2023-02-09T13:45:49.071Z,102664.09
2023-02-09T13:48:24.044Z,102659.06
2023-02-09T13:50:55.055Z,102662.59
2023-02-09T13:53:25.144Z,102656.63
2023-02-09T13:55:54.790Z,102663.13
2023-02-09T13:58:25.685Z,102649.00
2023-02-09T14:00:56.387Z,102627.59
2023-02-09T14:03:26.978Z,102612.97
2023-02-09T14:05:59.918Z,102610.81
2023-02-09T14:08:29.231Z,102611.09
2023-02-09T14:11:04.223Z,102616.31
2023-02-09T14:13:36.713Z,102606.59
2023-02-09T14:16:07.760Z,102588.25
2023-02-09T14:18:47.944Z,102584.56
2023-02-09T14:21:24.022Z,102590.31
2023-02-09T14:24:14.579Z,102594.69
2023-02-09T14:26:44.199Z,102603.41
2023-02-09T14:29:17.930Z,102606.84
2023-02-09T14:31:49.123Z,102597.22
2023-02-09T14:34:32.756Z,102592.91
2023-02-09T14:37:04.533Z,102575.72
2023-02-09T14:39:32.574Z,102597.50
2023-02-09T14:42:17.941Z,102595.97
2023-02-09T14:44:47.383Z,102602.84
2023-02-09T14:47:30.032Z,102612.38
2023-02-09T14:49:58.349Z,102606.09
2023-02-09T14:52:28.927Z,102617.41
2023-02-09T14:54:58.947Z,102624.03
2023-02-09T14:57:29.025Z,102609.03
2023-02-09T14:59:57.171Z,102617.66
2023-02-09T15:02:27.157Z,102602.91
2023-02-09T15:04:55.233Z,102610.72
2023-02-09T15:07:28.301Z,102601.09
2023-02-09T15:09:57.604Z,102599.22
2023-02-09T15:12:28.260Z,102583.75
2023-02-09T15:14:59.452Z,102585.59
2023-02-09T15:17:29.991Z,102588.88
2023-02-09T15:19:58.477Z,102587.88
2023-02-09T15:22:27.321Z,102576.38
2023-02-09T15:24:54.957Z,102561.03
2023-02-09T15:27:27.817Z,102565.84
2023-02-09T15:29:59.701Z,102552.28
2023-02-09T15:32:29.072Z,102551.03
2023-02-09T15:34:56.748Z,102553.47
2023-02-09T15:37:26.778Z,102568.41
2023-02-09T15:39:57.241Z,102555.59
2023-02-09T15:42:43.826Z,102554.78
2023-02-09T15:45:33.758Z,102557.34
2023-02-09T15:48:01.583Z,102549.78
2023-02-09T15:50:30.870Z,102565.50
2023-02-09T15:52:59.654Z,102583.09
2023-02-09T15:55:28.462Z,102582.44
2023-02-09T15:57:57.765Z,102568.78
2023-02-09T16:00:27.685Z,102557.97
2023-02-09T16:02:56.519Z,102557.63
2023-02-09T16:05:27.747Z,102550.72
2023-02-09T16:07:56.390Z,102533.50
2023-02-09T16:10:26.191Z,102534.31
2023-02-09T16:12:54.370Z,102529.94
2023-02-09T16:15:25.162Z,102530.47
2023-02-09T16:17:53.283Z,102542.81
2023-02-09T16:20:22.024Z,102544.72
2023-02-09T16:22:52.976Z,102542.00
2023-02-09T16:25:23.923Z,102525.13
2023-02-09T16:27:52.933Z,102513.66
2023-02-09T16:30:24.708Z,102511.13
2023-02-09T16:32:52.403Z,102527.19
2023-02-09T16:35:21.158Z,102520.59
2023-02-09T16:37:50.578Z,102523.47
2023-02-09T16:40:26.797Z,102536.31
2023-02-09T16:42:55.928Z,102550.50
2023-02-09T16:45:25.646Z,102549.47
2023-02-09T16:47:59.162Z,102552.72
2023-02-09T16:50:32.839Z,102552.53
2023-02-09T16:53:03.678Z,102531.41
2023-02-09T16:55:32.811Z,102525.19
2023-02-09T16:58:02.566Z,102544.78
2023-02-09T17:00:34.388Z,102536.97
2023-02-09T17:03:07.414Z,102544.09
2023-02-09T17:05:37.274Z,102550.34
2023-02-09T17:08:10.668Z,102551.72
2023-02-09T17:10:38.382Z,102559.97
2023-02-09T17:13:06.041Z,102564.88
2023-02-09T17:15:40.614Z,102569.59
2023-02-09T17:18:10.655Z,102555.25
2023-02-09T17:20:42.120Z,102550.34
2023-02-09T17:23:14.329Z,102555.91
2023-02-09T17:25:42.092Z,102566.06
2023-02-09T17:28:09.826Z,102570.44
2023-02-09T17:30:39.890Z,102573.31
2023-02-09T17:33:11.561Z,102574.31
2023-02-09T17:38:30.461Z,102552.72
2023-02-09T17:41:00.267Z,102559.63
2023-02-09T17:43:28.652Z,102553.72
2023-02-09T17:45:57.709Z,102546.13
2023-02-09T17:48:25.539Z,102549.50
2023-02-09T17:50:57.983Z,102551.19
2023-02-09T17:53:28.471Z,102569.25
2023-02-09T17:55:57.500Z,102561.47
2023-02-09T17:58:25.819Z,102563.50
2023-02-09T18:00:55.805Z,102564.16
2023-02-09T18:03:26.230Z,102557.41
2023-02-09T18:05:55.605Z,102560.59
2023-02-09T18:08:23.323Z,102557.41
2023-02-09T18:10:51.505Z,102563.63
2023-02-09T18:13:21.498Z,102565.84
2023-02-09T18:15:51.569Z,102570.91
2023-02-09T18:18:19.429Z,102576.66
2023-02-09T18:20:49.331Z,102569.03
2023-02-09T18:23:17.109Z,102579.16
2023-02-09T18:25:46.495Z,102582.06
2023-02-09T18:28:16.555Z,102574.78
2023-02-09T18:30:44.537Z,102572.91
2023-02-09T18:33:13.313Z,102559.53
2023-02-09T18:35:44.562Z,102566.97
2023-02-09T18:38:16.004Z,102565.00
2023-02-09T18:40:43.689Z,102551.97
2023-02-09T18:43:14.547Z,102556.03
2023-02-09T18:45:42.267Z,102560.75
2023-02-09T18:48:12.121Z,102561.06
2023-02-09T18:50:40.129Z,102550.28
2023-02-09T18:53:08.596Z,102557.72
2023-02-09T18:55:37.653Z,102565.13
2023-02-09T18:58:09.154Z,102561.06
2023-02-09T19:00:36.850Z,102553.94
2023-02-09T19:03:05.091Z,102549.41
2023-02-09T19:05:34.593Z,102550.75
2023-02-09T19:08:02.390Z,102560.16
2023-02-09T19:10:32.878Z,102554.25
2023-02-09T19:13:03.050Z,102541.94
2023-02-09T19:15:31.626Z,102534.81
2023-02-09T19:17:59.639Z,102543.47
2023-02-09T19:20:32.090Z,102543.06
2023-02-09T19:23:02.261Z,102549.69
2023-02-09T19:25:30.814Z,102550.03
2023-02-09T19:27:58.512Z,102544.63
2023-02-09T19:30:28.558Z,102546.63
2023-02-09T19:32:58.570Z,102547.78
2023-02-09T19:35:27.143Z,102556.06
2023-02-09T19:37:56.225Z,102546.50
2023-02-09T19:40:35.265Z,102548.66
2023-02-09T19:43:03.826Z,102556.44
2023-02-09T19:45:36.390Z,102546.16
2023-02-09T19:48:04.807Z,102544.75
2023-02-09T19:50:32.568Z,102544.13
2023-02-09T19:53:00.263Z,102546.63
2023-02-09T19:55:27.964Z,102541.91
2023-02-09T19:57:55.646Z,102540.47
2023-02-09T20:00:23.298Z,102539.47
2023-02-09T20:02:52.358Z,102533.03
2023-02-09T20:05:20.091Z,102531.78
2023-02-09T20:07:48.781Z,102529.06
2023-02-09T20:10:16.572Z,102523.16
2023-02-09T20:15:12.783Z,102532.91
2023-02-09T20:17:40.423Z,102533.41
2023-02-09T20:20:10.242Z,102534.41
2023-02-09T20:22:38.203Z,102531.34
2023-02-09T20:25:06.527Z,102539.94
2023-02-09T20:27:34.407Z,102536.41
2023-02-09T20:30:03.624Z,102535.53
2023-02-09T20:32:31.860Z,102534.78
2023-02-09T20:34:59.577Z,102534.94
2023-02-09T20:37:28.785Z,102534.94
2023-02-09T20:39:56.478Z,102541.34
2023-02-09T20:42:41.415Z,102544.16
2023-02-09T20:45:32.165Z,102534.78
2023-02-09T20:47:59.880Z,102530.72
2023-02-09T20:50:27.626Z,102532.63
2023-02-09T20:52:56.854Z,102539.56
2023-02-09T20:55:24.463Z,102539.16
2023-02-09T20:57:52.148Z,102546.44
2023-02-09T21:00:20.235Z,102544.56
2023-02-09T21:02:47.980Z,102541.28
2023-02-09T21:05:16.601Z,102542.25
2023-02-09T21:07:44.255Z,102539.47
2023-02-09T21:10:15.613Z,102541.13
2023-02-09T21:12:43.254Z,102543.00
2023-02-09T21:15:11.034Z,102551.88
2023-02-09T21:17:43.707Z,102547.69
2023-02-09T21:20:11.741Z,102556.47
2023-02-09T21:22:39.448Z,102555.63
2023-02-09T21:25:07.576Z,102551.19
2023-02-09T21:27:36.982Z,102556.19
2023-02-09T21:30:05.599Z,102559.19
2023-02-09T21:32:34.844Z,102557.41
2023-02-09T21:35:02.608Z,102558.47
2023-02-09T21:37:31.899Z,102554.41
2023-02-09T21:40:02.788Z,102556.41
2023-02-09T21:42:31.418Z,102560.31
2023-02-09T21:45:00.748Z,102560.44
2023-02-09T21:47:29.461Z,102552.28
2023-02-09T21:49:57.247Z,102553.56
2023-02-09T21:52:25.053Z,102549.50
2023-02-09T21:54:53.769Z,102553.59
2023-02-09T21:57:22.532Z,102553.50
2023-02-09T21:59:50.341Z,102559.19
2023-02-09T22:02:20.460Z,102554.00
2023-02-09T22:04:49.682Z,102558.88
2023-02-09T22:07:17.466Z,102551.44
2023-02-09T22:09:45.081Z,102544.50
2023-02-09T22:12:12.758Z,102553.44
2023-02-09T22:14:40.478Z,102554.59
2023-02-09T22:17:08.114Z,102561.22
2023-02-09T22:19:37.807Z,102564.91
2023-02-09T22:22:05.591Z,102567.47
2023-02-09T22:24:34.769Z,102562.91
2023-02-09T22:27:02.690Z,102571.06
2023-02-09T22:29:30.676Z,102561.09
2023-02-09T22:31:58.383Z,102566.88
2023-02-09T22:34:26.606Z,102564.66
2023-02-09T22:36:55.725Z,102574.13
2023-02-09T22:39:23.468Z,102577.50
2023-02-09T22:41:51.153Z,102580.75
2023-02-09T22:44:18.986Z,102574.34
2023-02-09T22:46:47.251Z,102579.34
2023-02-09T22:49:18.172Z,102581.09
2023-02-09T22:51:47.303Z,102590.38
2023-02-09T22:54:18.638Z,102590.03
2023-02-09T22:56:46.677Z,102591.38
2023-02-09T22:59:15.421Z,102591.47
2023-02-09T23:01:43.633Z,102585.41
2023-02-09T23:04:11.461Z,102581.72
2023-02-09T23:06:39.340Z,102583.72
2023-02-09T23:09:08.667Z,102580.88
2023-02-09T23:11:37.973Z,102588.97
2023-02-09T23:14:09.980Z,102583.09
2023-02-09T23:16:38.446Z,102580.91
2023-02-09T23:19:09.071Z,102581.81
2023-02-09T23:21:38.410Z,102585.41
2023-02-09T23:24:06.411Z,102576.63
2023-02-09T23:26:34.635Z,102577.66
2023-02-09T23:29:05.734Z,102568.88
2023-02-09T23:31:33.625Z,102571.94
2023-02-09T23:34:01.469Z,102578.34
2023-02-09T23:36:31.231Z,102571.25
2023-02-09T23:39:00.700Z,102566.22
2023-02-09T23:41:29.204Z,102573.81
2023-02-09T23:43:57.736Z,102572.66
2023-02-09T23:46:29.155Z,102573.84
2023-02-09T23:48:57.164Z,102572.97
2023-02-09T23:51:28.319Z,102575.50
2023-02-09T23:53:56.981Z,102579.75
2023-02-09T23:56:25.141Z,102583.16
2023-02-09T23:58:54.240Z,102586.94
